sensor_id;sensor_type;location;lat;lon;timestamp;temperature;humidity
3842;DHT22;1936;47.074;15.336;2022-12-17T00:02:17;0.90;99.90
3842;DHT22;1936;47.074;15.336;2022-12-17T00:04:38;0.90;99.90
3842;DHT22;1936;47.074;15.336;2022-12-17T00:06:59;0.80;99.90
3842;DHT22;1936;47.074;15.336;2022-12-17T00:09:20;0.90;99.90
3842;DHT22;1936;47.074;15.336;2022-12-17T00:11:40;0.90;99.90
3842;DHT22;1936;47.074;15.336;2022-12-17T00:14:05;0.80;99.90
3842;DHT22;1936;47.074;15.336;2022-12-17T00:16:25;0.90;99.90
3842;DHT22;1936;47.074;15.336;2022-12-17T00:18:46;0.80;99.90
3842;DHT22;1936;47.074;15.336;2022-12-17T00:21:08;0.80;99.90
3842;DHT22;1936;47.074;15.336;2022-12-17T00:23:29;0.80;99.90
3842;DHT22;1936;47.074;15.336;2022-12-17T00:25:50;0.90;99.90
3842;DHT22;1936;47.074;15.336;2022-12-17T00:28:11;0.90;99.90
3842;DHT22;1936;47.074;15.336;2022-12-17T00:30:34;0.90;99.90
3842;DHT22;1936;47.074;15.336;2022-12-17T00:32:55;0.90;99.90
3842;DHT22;1936;47.074;15.336;2022-12-17T00:35:15;0.80;99.90
3842;DHT22;1936;47.074;15.336;2022-12-17T00:37:36;0.80;99.90
3842;DHT22;1936;47.074;15.336;2022-12-17T00:39:57;0.90;99.90
3842;DHT22;1936;47.074;15.336;2022-12-17T00:42:18;0.90;99.90
3842;DHT22;1936;47.074;15.336;2022-12-17T00:44:39;0.90;99.90
3842;DHT22;1936;47.074;15.336;2022-12-17T00:47:01;0.80;99.90
3842;DHT22;1936;47.074;15.336;2022-12-17T00:49:22;0.80;99.90
3842;DHT22;1936;47.074;15.336;2022-12-17T00:51:42;0.80;99.90
3842;DHT22;1936;47.074;15.336;2022-12-17T00:54:03;0.80;99.90
3842;DHT22;1936;47.074;15.336;2022-12-17T00:56:24;0.80;99.90
3842;DHT22;1936;47.074;15.336;2022-12-17T00:58:44;0.80;99.90
3842;DHT22;1936;47.074;15.336;2022-12-17T01:01:06;0.80;99.90
3842;DHT22;1936;47.074;15.336;2022-12-17T01:03:28;0.90;99.90
3842;DHT22;1936;47.074;15.336;2022-12-17T01:06:01;0.80;99.90
3842;DHT22;1936;47.074;15.336;2022-12-17T01:08:21;0.90;99.90
3842;DHT22;1936;47.074;15.336;2022-12-17T01:10:42;0.80;99.90
3842;DHT22;1936;47.074;15.336;2022-12-17T01:13:03;0.90;99.90
3842;DHT22;1936;47.074;15.336;2022-12-17T01:15:23;0.80;99.90
3842;DHT22;1936;47.074;15.336;2022-12-17T01:17:44;0.80;99.90
3842;DHT22;1936;47.074;15.336;2022-12-17T01:20:07;0.80;99.90
3842;DHT22;1936;47.074;15.336;2022-12-17T01:22:28;0.90;99.90
3842;DHT22;1936;47.074;15.336;2022-12-17T01:24:48;0.90;99.90
3842;DHT22;1936;47.074;15.336;2022-12-17T01:27:10;0.90;99.90
3842;DHT22;1936;47.074;15.336;2022-12-17T01:29:31;0.90;99.90
3842;DHT22;1936;47.074;15.336;2022-12-17T01:31:52;0.90;99.90
3842;DHT22;1936;47.074;15.336;2022-12-17T01:34:13;0.80;99.90
3842;DHT22;1936;47.074;15.336;2022-12-17T01:36:35;0.80;99.90
3842;DHT22;1936;47.074;15.336;2022-12-17T01:38:56;0.90;99.90
3842;DHT22;1936;47.074;15.336;2022-12-17T01:41:16;0.80;99.90
3842;DHT22;1936;47.074;15.336;2022-12-17T01:43:38;0.80;99.90
3842;DHT22;1936;47.074;15.336;2022-12-17T01:45:59;0.80;99.90
3842;DHT22;1936;47.074;15.336;2022-12-17T01:48:25;0.80;99.90
3842;DHT22;1936;47.074;15.336;2022-12-17T01:51:02;0.80;99.90
3842;DHT22;1936;47.074;15.336;2022-12-17T01:53:29;0.80;99.90
3842;DHT22;1936;47.074;15.336;2022-12-17T01:55:51;0.80;99.90
3842;DHT22;1936;47.074;15.336;2022-12-17T01:58:12;0.80;99.90
3842;DHT22;1936;47.074;15.336;2022-12-17T02:00:32;0.80;99.90
3842;DHT22;1936;47.074;15.336;2022-12-17T02:02:53;0.80;99.90
3842;DHT22;1936;47.074;15.336;2022-12-17T02:05:14;0.80;99.90
3842;DHT22;1936;47.074;15.336;2022-12-17T02:07:53;0.80;99.90
3842;DHT22;1936;47.074;15.336;2022-12-17T02:10:22;0.80;99.90
3842;DHT22;1936;47.074;15.336;2022-12-17T02:12:46;0.80;99.90
3842;DHT22;1936;47.074;15.336;2022-12-17T02:15:14;0.80;99.90
3842;DHT22;1936;47.074;15.336;2022-12-17T02:17:39;0.80;99.90
3842;DHT22;1936;47.074;15.336;2022-12-17T02:20:11;0.80;99.90
3842;DHT22;1936;47.074;15.336;2022-12-17T02:22:44;0.70;99.90
3842;DHT22;1936;47.074;15.336;2022-12-17T02:25:12;0.80;99.90
3842;DHT22;1936;47.074;15.336;2022-12-17T02:27:36;0.80;99.90
3842;DHT22;1936;47.074;15.336;2022-12-17T02:29:55;0.80;99.90
3842;DHT22;1936;47.074;15.336;2022-12-17T02:32:17;0.70;99.90
3842;DHT22;1936;47.074;15.336;2022-12-17T02:34:43;0.80;99.90
3842;DHT22;1936;47.074;15.336;2022-12-17T02:37:04;0.80;99.90
3842;DHT22;1936;47.074;15.336;2022-12-17T02:39:40;0.80;99.90
3842;DHT22;1936;47.074;15.336;2022-12-17T02:42:00;0.70;99.90
3842;DHT22;1936;47.074;15.336;2022-12-17T02:44:23;0.70;99.90
3842;DHT22;1936;47.074;15.336;2022-12-17T02:46:45;0.80;99.90
3842;DHT22;1936;47.074;15.336;2022-12-17T02:49:06;0.80;99.90
3842;DHT22;1936;47.074;15.336;2022-12-17T02:51:27;0.80;99.90
3842;DHT22;1936;47.074;15.336;2022-12-17T02:53:50;0.80;99.90
3842;DHT22;1936;47.074;15.336;2022-12-17T02:56:12;0.80;99.90
3842;DHT22;1936;47.074;15.336;2022-12-17T02:58:33;0.80;99.90
3842;DHT22;1936;47.074;15.336;2022-12-17T03:00:55;0.80;99.90
3842;DHT22;1936;47.074;15.336;2022-12-17T03:03:16;0.80;99.90
3842;DHT22;1936;47.074;15.336;2022-12-17T03:05:37;0.80;99.90
3842;DHT22;1936;47.074;15.336;2022-12-17T03:07:54;0.80;99.90
3842;DHT22;1936;47.074;15.336;2022-12-17T03:10:15;0.80;99.90
3842;DHT22;1936;47.074;15.336;2022-12-17T03:12:36;0.80;99.90
3842;DHT22;1936;47.074;15.336;2022-12-17T03:14:56;0.90;99.90
3842;DHT22;1936;47.074;15.336;2022-12-17T03:17:18;0.80;99.90
3842;DHT22;1936;47.074;15.336;2022-12-17T03:19:39;0.80;99.90
3842;DHT22;1936;47.074;15.336;2022-12-17T03:22:02;0.80;99.90
3842;DHT22;1936;47.074;15.336;2022-12-17T03:24:22;0.80;99.90
3842;DHT22;1936;47.074;15.336;2022-12-17T03:26:43;0.80;99.90
3842;DHT22;1936;47.074;15.336;2022-12-17T03:29:04;0.80;99.90
3842;DHT22;1936;47.074;15.336;2022-12-17T03:31:25;0.80;99.90
3842;DHT22;1936;47.074;15.336;2022-12-17T03:33:46;0.90;99.90
3842;DHT22;1936;47.074;15.336;2022-12-17T03:36:07;0.80;99.90
3842;DHT22;1936;47.074;15.336;2022-12-17T03:38:27;0.80;99.90
3842;DHT22;1936;47.074;15.336;2022-12-17T03:40:49;0.80;99.90
3842;DHT22;1936;47.074;15.336;2022-12-17T03:43:11;0.80;99.90
3842;DHT22;1936;47.074;15.336;2022-12-17T03:45:31;0.90;99.90
3842;DHT22;1936;47.074;15.336;2022-12-17T03:48:03;0.90;99.90
3842;DHT22;1936;47.074;15.336;2022-12-17T03:50:25;0.90;99.90
3842;DHT22;1936;47.074;15.336;2022-12-17T03:52:59;0.90;99.90
3842;DHT22;1936;47.074;15.336;2022-12-17T03:55:21;0.90;99.90
3842;DHT22;1936;47.074;15.336;2022-12-17T03:57:41;0.90;99.90
3842;DHT22;1936;47.074;15.336;2022-12-17T04:00:03;0.90;99.90
3842;DHT22;1936;47.074;15.336;2022-12-17T04:02:24;0.90;99.90
3842;DHT22;1936;47.074;15.336;2022-12-17T04:04:45;0.90;99.90
3842;DHT22;1936;47.074;15.336;2022-12-17T04:07:07;0.90;99.90
3842;DHT22;1936;47.074;15.336;2022-12-17T04:09:28;0.90;99.90
3842;DHT22;1936;47.074;15.336;2022-12-17T04:11:48;0.90;99.90
3842;DHT22;1936;47.074;15.336;2022-12-17T04:14:09;0.90;99.90
3842;DHT22;1936;47.074;15.336;2022-12-17T04:16:29;0.90;99.90
3842;DHT22;1936;47.074;15.336;2022-12-17T04:18:50;0.90;99.90
3842;DHT22;1936;47.074;15.336;2022-12-17T04:21:11;0.90;99.90
3842;DHT22;1936;47.074;15.336;2022-12-17T04:23:33;0.90;99.90
3842;DHT22;1936;47.074;15.336;2022-12-17T04:25:54;0.90;99.90
3842;DHT22;1936;47.074;15.336;2022-12-17T04:28:15;0.90;99.90
3842;DHT22;1936;47.074;15.336;2022-12-17T04:30:36;0.90;99.90
3842;DHT22;1936;47.074;15.336;2022-12-17T04:32:57;0.90;99.90
3842;DHT22;1936;47.074;15.336;2022-12-17T04:35:17;0.90;99.90
3842;DHT22;1936;47.074;15.336;2022-12-17T04:37:38;0.80;99.90
3842;DHT22;1936;47.074;15.336;2022-12-17T04:40:04;0.90;99.90
3842;DHT22;1936;47.074;15.336;2022-12-17T04:42:25;0.80;99.90
3842;DHT22;1936;47.074;15.336;2022-12-17T04:44:45;0.90;99.90
3842;DHT22;1936;47.074;15.336;2022-12-17T04:47:06;0.90;99.90
3842;DHT22;1936;47.074;15.336;2022-12-17T04:49:27;0.90;99.90
3842;DHT22;1936;47.074;15.336;2022-12-17T04:51:48;0.90;99.90
3842;DHT22;1936;47.074;15.336;2022-12-17T04:54:09;0.90;99.90
3842;DHT22;1936;47.074;15.336;2022-12-17T04:56:31;0.80;99.90
3842;DHT22;1936;47.074;15.336;2022-12-17T04:58:52;0.80;99.90
3842;DHT22;1936;47.074;15.336;2022-12-17T05:01:13;0.80;99.90
3842;DHT22;1936;47.074;15.336;2022-12-17T05:03:34;0.80;99.90
3842;DHT22;1936;47.074;15.336;2022-12-17T05:05:55;0.80;99.90
3842;DHT22;1936;47.074;15.336;2022-12-17T05:08:15;0.80;99.90
3842;DHT22;1936;47.074;15.336;2022-12-17T05:10:42;0.90;99.90
3842;DHT22;1936;47.074;15.336;2022-12-17T05:13:04;0.80;99.90
3842;DHT22;1936;47.074;15.336;2022-12-17T05:15:25;0.80;99.90
3842;DHT22;1936;47.074;15.336;2022-12-17T05:17:53;0.70;99.90
3842;DHT22;1936;47.074;15.336;2022-12-17T05:20:14;0.70;99.90
3842;DHT22;1936;47.074;15.336;2022-12-17T05:22:35;0.80;99.90
3842;DHT22;1936;47.074;15.336;2022-12-17T05:24:52;0.80;99.90
3842;DHT22;1936;47.074;15.336;2022-12-17T05:27:13;0.80;99.90
3842;DHT22;1936;47.074;15.336;2022-12-17T05:29:35;0.80;99.90
3842;DHT22;1936;47.074;15.336;2022-12-17T05:31:56;0.90;99.90
3842;DHT22;1936;47.074;15.336;2022-12-17T05:34:17;0.90;99.90
3842;DHT22;1936;47.074;15.336;2022-12-17T05:36:38;0.80;99.90
3842;DHT22;1936;47.074;15.336;2022-12-17T05:38:59;0.80;99.90
3842;DHT22;1936;47.074;15.336;2022-12-17T05:41:19;0.80;99.90
3842;DHT22;1936;47.074;15.336;2022-12-17T05:43:41;0.80;99.90
3842;DHT22;1936;47.074;15.336;2022-12-17T05:46:03;0.80;99.90
3842;DHT22;1936;47.074;15.336;2022-12-17T05:48:25;0.80;99.90
3842;DHT22;1936;47.074;15.336;2022-12-17T05:50:49;0.80;99.90
3842;DHT22;1936;47.074;15.336;2022-12-17T05:53:11;0.80;99.90
3842;DHT22;1936;47.074;15.336;2022-12-17T05:55:31;0.80;99.90
3842;DHT22;1936;47.074;15.336;2022-12-17T05:57:59;0.80;99.90
3842;DHT22;1936;47.074;15.336;2022-12-17T06:00:20;0.80;99.90
3842;DHT22;1936;47.074;15.336;2022-12-17T06:02:42;0.80;99.90
3842;DHT22;1936;47.074;15.336;2022-12-17T06:05:03;0.80;99.90
3842;DHT22;1936;47.074;15.336;2022-12-17T06:07:29;0.70;99.90
3842;DHT22;1936;47.074;15.336;2022-12-17T06:09:50;0.70;99.90
3842;DHT22;1936;47.074;15.336;2022-12-17T06:12:11;0.70;99.90
3842;DHT22;1936;47.074;15.336;2022-12-17T06:14:31;0.70;99.90
3842;DHT22;1936;47.074;15.336;2022-12-17T06:16:52;0.80;99.90
3842;DHT22;1936;47.074;15.336;2022-12-17T06:19:15;0.70;99.90
3842;DHT22;1936;47.074;15.336;2022-12-17T06:21:36;0.70;99.90
3842;DHT22;1936;47.074;15.336;2022-12-17T06:23:57;0.70;99.90
3842;DHT22;1936;47.074;15.336;2022-12-17T06:26:18;0.80;99.90
3842;DHT22;1936;47.074;15.336;2022-12-17T06:28:44;0.80;99.90
3842;DHT22;1936;47.074;15.336;2022-12-17T06:31:05;0.70;99.90
3842;DHT22;1936;47.074;15.336;2022-12-17T06:33:26;0.70;99.90
3842;DHT22;1936;47.074;15.336;2022-12-17T06:35:57;0.70;99.90
3842;DHT22;1936;47.074;15.336;2022-12-17T06:38:23;0.70;99.90
3842;DHT22;1936;47.074;15.336;2022-12-17T06:40:44;0.70;99.90
3842;DHT22;1936;47.074;15.336;2022-12-17T06:43:05;0.60;99.90
3842;DHT22;1936;47.074;15.336;2022-12-17T06:45:24;0.70;99.90
3842;DHT22;1936;47.074;15.336;2022-12-17T06:47:45;0.70;99.90
3842;DHT22;1936;47.074;15.336;2022-12-17T06:50:06;0.70;99.90
3842;DHT22;1936;47.074;15.336;2022-12-17T06:52:28;0.60;99.90
3842;DHT22;1936;47.074;15.336;2022-12-17T06:54:49;0.60;99.90
3842;DHT22;1936;47.074;15.336;2022-12-17T06:57:10;0.60;99.90
3842;DHT22;1936;47.074;15.336;2022-12-17T06:59:30;0.60;99.90
3842;DHT22;1936;47.074;15.336;2022-12-17T07:01:51;0.60;99.90
3842;DHT22;1936;47.074;15.336;2022-12-17T07:04:12;0.60;99.90
3842;DHT22;1936;47.074;15.336;2022-12-17T07:06:33;0.60;99.90
3842;DHT22;1936;47.074;15.336;2022-12-17T07:08:56;0.70;99.90
3842;DHT22;1936;47.074;15.336;2022-12-17T07:11:17;0.60;99.90
3842;DHT22;1936;47.074;15.336;2022-12-17T07:13:38;0.70;99.90
3842;DHT22;1936;47.074;15.336;2022-12-17T07:15:58;0.70;99.90
3842;DHT22;1936;47.074;15.336;2022-12-17T07:18:19;0.70;99.90
3842;DHT22;1936;47.074;15.336;2022-12-17T07:20:40;0.80;99.90
3842;DHT22;1936;47.074;15.336;2022-12-17T07:23:06;0.80;99.90
3842;DHT22;1936;47.074;15.336;2022-12-17T07:25:28;0.90;99.90
3842;DHT22;1936;47.074;15.336;2022-12-17T07:27:53;0.90;99.90
3842;DHT22;1936;47.074;15.336;2022-12-17T07:30:13;0.90;99.90
3842;DHT22;1936;47.074;15.336;2022-12-17T07:32:34;0.90;99.90
3842;DHT22;1936;47.074;15.336;2022-12-17T07:34:55;0.90;99.90
3842;DHT22;1936;47.074;15.336;2022-12-17T07:37:15;0.90;99.90
3842;DHT22;1936;47.074;15.336;2022-12-17T07:39:36;0.90;99.90
3842;DHT22;1936;47.074;15.336;2022-12-17T07:41:58;1.00;99.90
3842;DHT22;1936;47.074;15.336;2022-12-17T07:44:15;1.00;99.90
3842;DHT22;1936;47.074;15.336;2022-12-17T07:46:36;1.00;99.90
3842;DHT22;1936;47.074;15.336;2022-12-17T07:48:57;1.00;99.90
3842;DHT22;1936;47.074;15.336;2022-12-17T07:51:23;0.90;99.90
3842;DHT22;1936;47.074;15.336;2022-12-17T07:53:44;1.00;99.90
3842;DHT22;1936;47.074;15.336;2022-12-17T07:56:06;1.10;99.90
3842;DHT22;1936;47.074;15.336;2022-12-17T07:58:28;1.10;99.90
3842;DHT22;1936;47.074;15.336;2022-12-17T08:00:48;1.30;99.90
3842;DHT22;1936;47.074;15.336;2022-12-17T08:03:10;1.20;99.90
3842;DHT22;1936;47.074;15.336;2022-12-17T08:05:30;1.20;99.90
3842;DHT22;1936;47.074;15.336;2022-12-17T08:07:51;1.30;99.90
3842;DHT22;1936;47.074;15.336;2022-12-17T08:10:12;1.30;99.90
3842;DHT22;1936;47.074;15.336;2022-12-17T08:12:32;1.40;99.90
3842;DHT22;1936;47.074;15.336;2022-12-17T08:14:54;1.40;99.90
3842;DHT22;1936;47.074;15.336;2022-12-17T08:17:15;1.30;99.90
3842;DHT22;1936;47.074;15.336;2022-12-17T08:19:36;1.30;99.90
3842;DHT22;1936;47.074;15.336;2022-12-17T08:21:57;1.40;99.90
3842;DHT22;1936;47.074;15.336;2022-12-17T08:24:17;1.30;99.90
3842;DHT22;1936;47.074;15.336;2022-12-17T08:26:38;1.30;99.90
3842;DHT22;1936;47.074;15.336;2022-12-17T08:28:59;1.40;99.90
3842;DHT22;1936;47.074;15.336;2022-12-17T08:31:22;1.40;99.90
3842;DHT22;1936;47.074;15.336;2022-12-17T08:33:43;1.40;99.90
3842;DHT22;1936;47.074;15.336;2022-12-17T08:36:09;1.30;99.90
3842;DHT22;1936;47.074;15.336;2022-12-17T08:38:29;1.30;99.90
3842;DHT22;1936;47.074;15.336;2022-12-17T08:40:50;1.40;99.90
3842;DHT22;1936;47.074;15.336;2022-12-17T08:43:11;1.40;99.90
3842;DHT22;1936;47.074;15.336;2022-12-17T08:45:47;1.40;99.90
3842;DHT22;1936;47.074;15.336;2022-12-17T08:48:09;1.30;99.90
3842;DHT22;1936;47.074;15.336;2022-12-17T08:50:30;1.30;99.90
3842;DHT22;1936;47.074;15.336;2022-12-17T08:52:59;1.30;99.90
3842;DHT22;1936;47.074;15.336;2022-12-17T08:55:19;1.40;99.90
3842;DHT22;1936;47.074;15.336;2022-12-17T08:57:41;1.40;99.90
3842;DHT22;1936;47.074;15.336;2022-12-17T09:00:12;1.40;99.90
3842;DHT22;1936;47.074;15.336;2022-12-17T09:02:33;1.40;99.90
3842;DHT22;1936;47.074;15.336;2022-12-17T09:04:56;1.40;99.90
3842;DHT22;1936;47.074;15.336;2022-12-17T09:07:16;1.50;99.90
3842;DHT22;1936;47.074;15.336;2022-12-17T09:09:37;1.50;99.90
3842;DHT22;1936;47.074;15.336;2022-12-17T09:11:57;1.60;99.90
3842;DHT22;1936;47.074;15.336;2022-12-17T09:14:18;1.60;99.90
3842;DHT22;1936;47.074;15.336;2022-12-17T09:16:39;1.50;99.90
3842;DHT22;1936;47.074;15.336;2022-12-17T09:19:00;1.50;99.90
3842;DHT22;1936;47.074;15.336;2022-12-17T09:21:22;1.50;99.90
3842;DHT22;1936;47.074;15.336;2022-12-17T09:23:43;1.40;99.90
3842;DHT22;1936;47.074;15.336;2022-12-17T09:26:04;1.50;99.90
3842;DHT22;1936;47.074;15.336;2022-12-17T09:28:24;1.50;99.90
3842;DHT22;1936;47.074;15.336;2022-12-17T09:30:45;1.50;99.90
3842;DHT22;1936;47.074;15.336;2022-12-17T09:33:06;1.60;99.90
3842;DHT22;1936;47.074;15.336;2022-12-17T09:35:26;1.60;99.90
3842;DHT22;1936;47.074;15.336;2022-12-17T09:37:55;1.60;99.90
3842;DHT22;1936;47.074;15.336;2022-12-17T09:40:20;1.60;99.90
3842;DHT22;1936;47.074;15.336;2022-12-17T09:42:47;1.60;99.90
3842;DHT22;1936;47.074;15.336;2022-12-17T09:45:13;1.70;99.90
3842;DHT22;1936;47.074;15.336;2022-12-17T09:47:41;1.60;99.90
3842;DHT22;1936;47.074;15.336;2022-12-17T09:50:11;1.60;99.90
3842;DHT22;1936;47.074;15.336;2022-12-17T09:52:37;1.70;99.90
3842;DHT22;1936;47.074;15.336;2022-12-17T09:55:00;1.70;99.90
3842;DHT22;1936;47.074;15.336;2022-12-17T09:57:26;1.80;99.90
3842;DHT22;1936;47.074;15.336;2022-12-17T09:59:47;1.90;99.90
3842;DHT22;1936;47.074;15.336;2022-12-17T10:02:13;1.90;99.90
3842;DHT22;1936;47.074;15.336;2022-12-17T10:04:38;2.10;99.90
3842;DHT22;1936;47.074;15.336;2022-12-17T10:07:00;2.20;99.90
3842;DHT22;1936;47.074;15.336;2022-12-17T10:09:25;2.20;99.90
3842;DHT22;1936;47.074;15.336;2022-12-17T10:11:48;2.30;99.90
3842;DHT22;1936;47.074;15.336;2022-12-17T10:14:19;2.30;99.90
3842;DHT22;1936;47.074;15.336;2022-12-17T10:16:44;2.10;99.90
3842;DHT22;1936;47.074;15.336;2022-12-17T10:19:14;2.10;99.90
3842;DHT22;1936;47.074;15.336;2022-12-17T10:21:37;2.10;99.90
3842;DHT22;1936;47.074;15.336;2022-12-17T10:24:04;2.20;99.90
3842;DHT22;1936;47.074;15.336;2022-12-17T10:26:27;2.20;99.90
3842;DHT22;1936;47.074;15.336;2022-12-17T10:28:49;2.30;99.90
3842;DHT22;1936;47.074;15.336;2022-12-17T10:31:15;2.30;99.90
3842;DHT22;1936;47.074;15.336;2022-12-17T10:33:37;2.40;99.90
3842;DHT22;1936;47.074;15.336;2022-12-17T10:35:58;2.50;99.90
3842;DHT22;1936;47.074;15.336;2022-12-17T10:38:21;2.70;99.90
3842;DHT22;1936;47.074;15.336;2022-12-17T10:40:43;2.80;99.90
3842;DHT22;1936;47.074;15.336;2022-12-17T10:45:52;2.80;99.90
3842;DHT22;1936;47.074;15.336;2022-12-17T10:48:18;2.90;99.90
3842;DHT22;1936;47.074;15.336;2022-12-17T10:50:40;3.00;99.90
3842;DHT22;1936;47.074;15.336;2022-12-17T10:53:02;3.10;99.90
3842;DHT22;1936;47.074;15.336;2022-12-17T10:55:26;3.20;99.90
3842;DHT22;1936;47.074;15.336;2022-12-17T10:57:49;3.20;99.90
3842;DHT22;1936;47.074;15.336;2022-12-17T11:00:21;2.80;99.90
3842;DHT22;1936;47.074;15.336;2022-12-17T11:02:51;3.10;99.90
3842;DHT22;1936;47.074;15.336;2022-12-17T11:05:24;3.30;99.90
3842;DHT22;1936;47.074;15.336;2022-12-17T11:07:46;3.50;99.90
3842;DHT22;1936;47.074;15.336;2022-12-17T11:10:14;3.30;99.90
3842;DHT22;1936;47.074;15.336;2022-12-17T11:12:38;3.70;99.90
3842;DHT22;1936;47.074;15.336;2022-12-17T11:15:18;4.10;99.90
3842;DHT22;1936;47.074;15.336;2022-12-17T11:17:41;4.40;99.90
3842;DHT22;1936;47.074;15.336;2022-12-17T11:20:21;4.50;99.90
3842;DHT22;1936;47.074;15.336;2022-12-17T11:22:59;4.50;99.90
3842;DHT22;1936;47.074;15.336;2022-12-17T11:25:31;4.60;99.90
3842;DHT22;1936;47.074;15.336;2022-12-17T11:28:04;4.40;99.90
3842;DHT22;1936;47.074;15.336;2022-12-17T11:30:26;4.40;99.90
3842;DHT22;1936;47.074;15.336;2022-12-17T11:33:02;4.30;99.90
3842;DHT22;1936;47.074;15.336;2022-12-17T11:35:52;4.40;99.90
3842;DHT22;1936;47.074;15.336;2022-12-17T11:38:26;4.00;99.90
3842;DHT22;1936;47.074;15.336;2022-12-17T11:40:51;3.90;99.90
3842;DHT22;1936;47.074;15.336;2022-12-17T11:43:19;3.80;99.90
3842;DHT22;1936;47.074;15.336;2022-12-17T11:45:53;4.00;99.90
3842;DHT22;1936;47.074;15.336;2022-12-17T11:48:32;3.70;99.90
3842;DHT22;1936;47.074;15.336;2022-12-17T11:51:01;3.70;99.90
3842;DHT22;1936;47.074;15.336;2022-12-17T11:53:36;3.60;99.90
3842;DHT22;1936;47.074;15.336;2022-12-17T11:56:08;3.60;99.90
3842;DHT22;1936;47.074;15.336;2022-12-17T11:58:35;3.40;99.90
3842;DHT22;1936;47.074;15.336;2022-12-17T12:01:04;3.60;99.90
3842;DHT22;1936;47.074;15.336;2022-12-17T12:03:34;3.60;99.90
3842;DHT22;1936;47.074;15.336;2022-12-17T12:05:59;3.80;99.90
3842;DHT22;1936;47.074;15.336;2022-12-17T12:08:25;4.00;99.90
3842;DHT22;1936;47.074;15.336;2022-12-17T12:10:55;3.90;99.90
3842;DHT22;1936;47.074;15.336;2022-12-17T12:13:20;3.80;99.90
3842;DHT22;1936;47.074;15.336;2022-12-17T12:15:55;3.60;99.90
3842;DHT22;1936;47.074;15.336;2022-12-17T12:18:25;3.40;99.90
3842;DHT22;1936;47.074;15.336;2022-12-17T12:21:06;3.60;99.90
3842;DHT22;1936;47.074;15.336;2022-12-17T12:23:39;3.40;99.90
3842;DHT22;1936;47.074;15.336;2022-12-17T12:26:06;3.20;99.90
3842;DHT22;1936;47.074;15.336;2022-12-17T12:28:33;3.40;99.90
3842;DHT22;1936;47.074;15.336;2022-12-17T12:31:03;3.40;99.90
3842;DHT22;1936;47.074;15.336;2022-12-17T12:33:43;3.70;99.90
3842;DHT22;1936;47.074;15.336;2022-12-17T12:36:10;3.80;99.90
3842;DHT22;1936;47.074;15.336;2022-12-17T12:38:34;3.80;99.90
3842;DHT22;1936;47.074;15.336;2022-12-17T12:41:01;3.60;99.90
3842;DHT22;1936;47.074;15.336;2022-12-17T12:43:27;3.90;99.90
3842;DHT22;1936;47.074;15.336;2022-12-17T12:45:54;4.40;99.90
3842;DHT22;1936;47.074;15.336;2022-12-17T12:48:24;4.60;99.90
3842;DHT22;1936;47.074;15.336;2022-12-17T12:50:52;6.10;99.90
3842;DHT22;1936;47.074;15.336;2022-12-17T12:53:16;7.10;99.90
3842;DHT22;1936;47.074;15.336;2022-12-17T12:55:38;6.70;99.90
3842;DHT22;1936;47.074;15.336;2022-12-17T12:58:01;7.30;99.90
3842;DHT22;1936;47.074;15.336;2022-12-17T13:00:36;7.40;99.90
3842;DHT22;1936;47.074;15.336;2022-12-17T13:03:06;8.60;99.90
3842;DHT22;1936;47.074;15.336;2022-12-17T13:05:37;9.30;99.90
3842;DHT22;1936;47.074;15.336;2022-12-17T13:07:40;10.60;99.80
3842;DHT22;1936;47.074;15.336;2022-12-17T13:09:49;9.90;91.30
3842;DHT22;1936;47.074;15.336;2022-12-17T13:11:55;10.80;87.60
3842;DHT22;1936;47.074;15.336;2022-12-17T13:14:14;10.90;80.30
3842;DHT22;1936;47.074;15.336;2022-12-17T13:16:27;11.00;96.00
3842;DHT22;1936;47.074;15.336;2022-12-17T13:18:35;10.30;93.00
3842;DHT22;1936;47.074;15.336;2022-12-17T13:20:39;10.30;93.40
3842;DHT22;1936;47.074;15.336;2022-12-17T13:22:49;10.60;86.50
3842;DHT22;1936;47.074;15.336;2022-12-17T13:25:12;10.40;84.60
3842;DHT22;1936;47.074;15.336;2022-12-17T13:27:29;10.30;90.70
3842;DHT22;1936;47.074;15.336;2022-12-17T13:29:34;10.50;84.40
3842;DHT22;1936;47.074;15.336;2022-12-17T13:34:10;10.30;82.10
3842;DHT22;1936;47.074;15.336;2022-12-17T13:36:20;10.00;77.70
3842;DHT22;1936;47.074;15.336;2022-12-17T13:38:32;9.30;77.40
3842;DHT22;1936;47.074;15.336;2022-12-17T13:40:43;8.80;79.20
3842;DHT22;1936;47.074;15.336;2022-12-17T13:42:48;8.80;84.80
3842;DHT22;1936;47.074;15.336;2022-12-17T13:44:52;8.70;81.60
3842;DHT22;1936;47.074;15.336;2022-12-17T13:46:55;7.50;90.90
3842;DHT22;1936;47.074;15.336;2022-12-17T13:49:01;6.90;92.70
3842;DHT22;1936;47.074;15.336;2022-12-17T13:51:05;6.20;94.80
3842;DHT22;1936;47.074;15.336;2022-12-17T13:53:13;5.60;97.80
3842;DHT22;1936;47.074;15.336;2022-12-17T13:55:19;4.80;99.90
3842;DHT22;1936;47.074;15.336;2022-12-17T13:57:24;4.60;99.90
3842;DHT22;1936;47.074;15.336;2022-12-17T13:59:28;4.30;99.90
3842;DHT22;1936;47.074;15.336;2022-12-17T14:01:31;4.20;99.90
3842;DHT22;1936;47.074;15.336;2022-12-17T14:03:36;4.00;99.90
3842;DHT22;1936;47.074;15.336;2022-12-17T14:06:00;3.60;99.90
3842;DHT22;1936;47.074;15.336;2022-12-17T14:08:04;3.10;99.90
3842;DHT22;1936;47.074;15.336;2022-12-17T14:10:14;2.80;99.90
3842;DHT22;1936;47.074;15.336;2022-12-17T14:12:21;2.60;99.90
3842;DHT22;1936;47.074;15.336;2022-12-17T14:14:28;2.30;99.90
3842;DHT22;1936;47.074;15.336;2022-12-17T14:16:33;2.10;99.90
3842;DHT22;1936;47.074;15.336;2022-12-17T14:18:39;1.90;99.90
3842;DHT22;1936;47.074;15.336;2022-12-17T14:20:44;1.80;99.90
3842;DHT22;1936;47.074;15.336;2022-12-17T14:22:50;1.60;99.90
3842;DHT22;1936;47.074;15.336;2022-12-17T14:24:54;1.30;99.90
3842;DHT22;1936;47.074;15.336;2022-12-17T14:26:59;1.30;99.90
3842;DHT22;1936;47.074;15.336;2022-12-17T14:29:11;1.10;99.90
3842;DHT22;1936;47.074;15.336;2022-12-17T14:31:18;0.90;99.90
3842;DHT22;1936;47.074;15.336;2022-12-17T14:33:32;0.90;99.90
3842;DHT22;1936;47.074;15.336;2022-12-17T14:35:38;0.70;99.90
3842;DHT22;1936;47.074;15.336;2022-12-17T14:37:45;0.60;99.90
3842;DHT22;1936;47.074;15.336;2022-12-17T14:39:49;0.50;99.90
3842;DHT22;1936;47.074;15.336;2022-12-17T14:41:56;0.40;99.90
3842;DHT22;1936;47.074;15.336;2022-12-17T14:44:19;0.20;99.90
3842;DHT22;1936;47.074;15.336;2022-12-17T14:46:26;0.00;99.90
3842;DHT22;1936;47.074;15.336;2022-12-17T14:48:30;-0.10;99.90
3842;DHT22;1936;47.074;15.336;2022-12-17T14:50:54;-0.10;99.90
3842;DHT22;1936;47.074;15.336;2022-12-17T14:52:58;-0.30;99.90
3842;DHT22;1936;47.074;15.336;2022-12-17T14:57:38;-0.40;99.90
3842;DHT22;1936;47.074;15.336;2022-12-17T14:59:42;-0.50;99.90
3842;DHT22;1936;47.074;15.336;2022-12-17T15:01:47;-0.60;99.90
3842;DHT22;1936;47.074;15.336;2022-12-17T15:03:56;-0.60;99.90
3842;DHT22;1936;47.074;15.336;2022-12-17T15:06:01;-0.70;99.90
3842;DHT22;1936;47.074;15.336;2022-12-17T15:08:05;-0.80;99.90
3842;DHT22;1936;47.074;15.336;2022-12-17T15:10:10;-0.80;99.90
3842;DHT22;1936;47.074;15.336;2022-12-17T15:12:14;-0.90;99.90
3842;DHT22;1936;47.074;15.336;2022-12-17T15:14:17;-1.00;99.90
3842;DHT22;1936;47.074;15.336;2022-12-17T15:16:21;-1.10;99.90
3842;DHT22;1936;47.074;15.336;2022-12-17T15:18:26;-1.10;99.90
3842;DHT22;1936;47.074;15.336;2022-12-17T15:20:29;-1.20;99.90
3842;DHT22;1936;47.074;15.336;2022-12-17T15:22:39;-1.20;99.90
3842;DHT22;1936;47.074;15.336;2022-12-17T15:24:43;-1.20;99.90
3842;DHT22;1936;47.074;15.336;2022-12-17T15:26:47;-1.20;99.90